sensor_id;sensor_type;location;lat;lon;timestamp;P1;durP1;ratioP1;P2;durP2;ratioP2
24159;SDS011;62385;41.594;23.808;2022-11-25T00:01:10;6.43;;;0.97;;
24159;SDS011;62385;41.594;23.808;2022-11-25T00:03:40;3.90;;;1.00;;
24159;SDS011;62385;41.594;23.808;2022-11-25T00:06:10;1.47;;;0.57;;
24159;SDS011;62385;41.594;23.808;2022-11-25T00:08:40;0.53;;;0.50;;
24159;SDS011;62385;41.594;23.808;2022-11-25T00:11:07;1.07;;;0.77;;
24159;SDS011;62385;41.594;23.808;2022-11-25T00:13:34;1.30;;;0.60;;
24159;SDS011;62385;41.594;23.808;2022-11-25T00:16:01;7.10;;;0.37;;
24159;SDS011;62385;41.594;23.808;2022-11-25T00:18:27;0.30;;;0.30;;
24159;SDS011;62385;41.594;23.808;2022-11-25T00:20:53;0.93;;;0.60;;
24159;SDS011;62385;41.594;23.808;2022-11-25T00:23:19;0.30;;;0.20;;
24159;SDS011;62385;41.594;23.808;2022-11-25T00:25:44;0.20;;;0.10;;
24159;SDS011;62385;41.594;23.808;2022-11-25T00:28:10;0.37;;;0.30;;
24159;SDS011;62385;41.594;23.808;2022-11-25T00:30:36;0.30;;;0.10;;
24159;SDS011;62385;41.594;23.808;2022-11-25T00:33:02;1.53;;;0.70;;
24159;SDS011;62385;41.594;23.808;2022-11-25T00:35:27;2.30;;;0.50;;
24159;SDS011;62385;41.594;23.808;2022-11-25T00:37:54;0.23;;;0.20;;
24159;SDS011;62385;41.594;23.808;2022-11-25T00:40:20;0.40;;;0.30;;
24159;SDS011;62385;41.594;23.808;2022-11-25T00:42:45;1.33;;;0.80;;
24159;SDS011;62385;41.594;23.808;2022-11-25T00:45:29;1.63;;;0.33;;
24159;SDS011;62385;41.594;23.808;2022-11-25T00:47:55;0.40;;;0.27;;
24159;SDS011;62385;41.594;23.808;2022-11-25T00:50:21;1.30;;;0.50;;
24159;SDS011;62385;41.594;23.808;2022-11-25T00:52:46;0.67;;;0.40;;
24159;SDS011;62385;41.594;23.808;2022-11-25T00:55:12;1.03;;;0.40;;
24159;SDS011;62385;41.594;23.808;2022-11-25T00:57:38;0.70;;;0.43;;
24159;SDS011;62385;41.594;23.808;2022-11-25T01:00:04;0.23;;;0.20;;
24159;SDS011;62385;41.594;23.808;2022-11-25T01:02:30;0.30;;;0.30;;
24159;SDS011;62385;41.594;23.808;2022-11-25T01:04:56;0.53;;;0.47;;
24159;SDS011;62385;41.594;23.808;2022-11-25T01:07:21;2.67;;;0.70;;
24159;SDS011;62385;41.594;23.808;2022-11-25T01:09:47;0.30;;;0.20;;
24159;SDS011;62385;41.594;23.808;2022-11-25T01:12:13;0.60;;;0.40;;
24159;SDS011;62385;41.594;23.808;2022-11-25T01:14:39;0.60;;;0.60;;
24159;SDS011;62385;41.594;23.808;2022-11-25T01:17:05;0.80;;;0.70;;
24159;SDS011;62385;41.594;23.808;2022-11-25T01:19:31;0.33;;;0.23;;
24159;SDS011;62385;41.594;23.808;2022-11-25T01:21:58;0.20;;;0.10;;
24159;SDS011;62385;41.594;23.808;2022-11-25T01:24:25;0.70;;;0.63;;
24159;SDS011;62385;41.594;23.808;2022-11-25T01:26:52;0.47;;;0.30;;
24159;SDS011;62385;41.594;23.808;2022-11-25T01:29:20;0.30;;;0.23;;
24159;SDS011;62385;41.594;23.808;2022-11-25T01:31:46;0.67;;;0.30;;
24159;SDS011;62385;41.594;23.808;2022-11-25T01:34:17;1.53;;;0.63;;
24159;SDS011;62385;41.594;23.808;2022-11-25T01:36:45;0.67;;;0.57;;
24159;SDS011;62385;41.594;23.808;2022-11-25T01:39:30;0.83;;;0.60;;
24159;SDS011;62385;41.594;23.808;2022-11-25T01:41:55;0.33;;;0.33;;
24159;SDS011;62385;41.594;23.808;2022-11-25T01:44:25;0.73;;;0.53;;
24159;SDS011;62385;41.594;23.808;2022-11-25T01:52:20;2.53;;;1.53;;
24159;SDS011;62385;41.594;23.808;2022-11-25T01:57:49;3.10;;;1.50;;
24159;SDS011;62385;41.594;23.808;2022-11-25T02:00:22;1.17;;;0.93;;
24159;SDS011;62385;41.594;23.808;2022-11-25T02:02:48;0.80;;;0.80;;
24159;SDS011;62385;41.594;23.808;2022-11-25T02:05:21;1.00;;;0.90;;
24159;SDS011;62385;41.594;23.808;2022-11-25T02:07:51;0.53;;;0.53;;
24159;SDS011;62385;41.594;23.808;2022-11-25T02:10:23;1.73;;;0.70;;
24159;SDS011;62385;41.594;23.808;2022-11-25T02:12:52;0.77;;;0.77;;
24159;SDS011;62385;41.594;23.808;2022-11-25T02:15:18;0.87;;;0.73;;
24159;SDS011;62385;41.594;23.808;2022-11-25T02:17:44;0.90;;;0.70;;
24159;SDS011;62385;41.594;23.808;2022-11-25T02:20:14;1.20;;;0.80;;
24159;SDS011;62385;41.594;23.808;2022-11-25T02:25:28;1.87;;;1.03;;
24159;SDS011;62385;41.594;23.808;2022-11-25T02:27:58;2.60;;;1.10;;
24159;SDS011;62385;41.594;23.808;2022-11-25T02:30:32;0.40;;;0.30;;
24159;SDS011;62385;41.594;23.808;2022-11-25T02:32:58;0.83;;;0.63;;
24159;SDS011;62385;41.594;23.808;2022-11-25T02:37:57;2.53;;;0.87;;
24159;SDS011;62385;41.594;23.808;2022-11-25T02:40:30;0.77;;;0.57;;
24159;SDS011;62385;41.594;23.808;2022-11-25T02:42:59;1.87;;;1.10;;
24159;SDS011;62385;41.594;23.808;2022-11-25T02:45:27;0.50;;;0.50;;
24159;SDS011;62385;41.594;23.808;2022-11-25T02:47:59;0.73;;;0.30;;
24159;SDS011;62385;41.594;23.808;2022-11-25T02:50:25;0.40;;;0.40;;
24159;SDS011;62385;41.594;23.808;2022-11-25T02:52:52;1.23;;;0.30;;
24159;SDS011;62385;41.594;23.808;2022-11-25T02:55:18;0.77;;;0.53;;
24159;SDS011;62385;41.594;23.808;2022-11-25T02:57:44;0.57;;;0.50;;
24159;SDS011;62385;41.594;23.808;2022-11-25T03:00:10;0.70;;;0.70;;
24159;SDS011;62385;41.594;23.808;2022-11-25T03:02:37;0.60;;;0.60;;
24159;SDS011;62385;41.594;23.808;2022-11-25T03:05:03;1.07;;;0.90;;
24159;SDS011;62385;41.594;23.808;2022-11-25T03:07:29;1.00;;;0.70;;
24159;SDS011;62385;41.594;23.808;2022-11-25T03:09:57;1.30;;;0.97;;
24159;SDS011;62385;41.594;23.808;2022-11-25T03:12:24;1.27;;;0.90;;
24159;SDS011;62385;41.594;23.808;2022-11-25T03:14:51;2.87;;;1.03;;
24159;SDS011;62385;41.594;23.808;2022-11-25T03:17:18;0.50;;;0.43;;
24159;SDS011;62385;41.594;23.808;2022-11-25T03:19:43;2.90;;;2.27;;
24159;SDS011;62385;41.594;23.808;2022-11-25T03:22:10;1.30;;;0.53;;
24159;SDS011;62385;41.594;23.808;2022-11-25T03:24:37;1.53;;;0.90;;
24159;SDS011;62385;41.594;23.808;2022-11-25T03:27:02;0.50;;;0.50;;
24159;SDS011;62385;41.594;23.808;2022-11-25T03:29:28;1.70;;;0.63;;
24159;SDS011;62385;41.594;23.808;2022-11-25T03:31:54;3.50;;;1.57;;
24159;SDS011;62385;41.594;23.808;2022-11-25T03:34:20;1.83;;;0.90;;
24159;SDS011;62385;41.594;23.808;2022-11-25T03:36:46;1.07;;;0.90;;
24159;SDS011;62385;41.594;23.808;2022-11-25T03:39:11;1.00;;;0.90;;
24159;SDS011;62385;41.594;23.808;2022-11-25T03:41:37;1.67;;;1.13;;
24159;SDS011;62385;41.594;23.808;2022-11-25T03:44:03;1.10;;;0.57;;
24159;SDS011;62385;41.594;23.808;2022-11-25T03:46:28;3.03;;;1.13;;
24159;SDS011;62385;41.594;23.808;2022-11-25T03:48:54;1.60;;;0.77;;
24159;SDS011;62385;41.594;23.808;2022-11-25T03:51:22;3.33;;;2.23;;
24159;SDS011;62385;41.594;23.808;2022-11-25T03:53:47;1.83;;;1.30;;
24159;SDS011;62385;41.594;23.808;2022-11-25T03:56:14;1.77;;;1.63;;
24159;SDS011;62385;41.594;23.808;2022-11-25T03:58:40;1.90;;;1.70;;
24159;SDS011;62385;41.594;23.808;2022-11-25T04:01:08;1.37;;;1.03;;
24159;SDS011;62385;41.594;23.808;2022-11-25T04:03:33;1.90;;;1.03;;
24159;SDS011;62385;41.594;23.808;2022-11-25T04:05:59;1.63;;;1.27;;
24159;SDS011;62385;41.594;23.808;2022-11-25T04:08:25;2.17;;;1.17;;
24159;SDS011;62385;41.594;23.808;2022-11-25T04:10:51;1.23;;;0.43;;
24159;SDS011;62385;41.594;23.808;2022-11-25T04:13:21;0.50;;;0.40;;
24159;SDS011;62385;41.594;23.808;2022-11-25T04:15:47;1.50;;;1.40;;
24159;SDS011;62385;41.594;23.808;2022-11-25T04:18:17;0.80;;;0.80;;
24159;SDS011;62385;41.594;23.808;2022-11-25T04:20:43;0.57;;;0.30;;
24159;SDS011;62385;41.594;23.808;2022-11-25T04:23:11;7.80;;;2.30;;
24159;SDS011;62385;41.594;23.808;2022-11-25T04:25:42;6.20;;;2.53;;
24159;SDS011;62385;41.594;23.808;2022-11-25T04:28:19;1.63;;;1.40;;
24159;SDS011;62385;41.594;23.808;2022-11-25T04:30:46;0.63;;;0.63;;
24159;SDS011;62385;41.594;23.808;2022-11-25T04:33:11;2.20;;;1.50;;
24159;SDS011;62385;41.594;23.808;2022-11-25T04:35:56;4.60;;;2.23;;
24159;SDS011;62385;41.594;23.808;2022-11-25T04:38:22;0.97;;;0.87;;
24159;SDS011;62385;41.594;23.808;2022-11-25T04:40:48;0.40;;;0.40;;
24159;SDS011;62385;41.594;23.808;2022-11-25T04:43:20;2.53;;;0.93;;
24159;SDS011;62385;41.594;23.808;2022-11-25T04:45:55;1.70;;;1.00;;
24159;SDS011;62385;41.594;23.808;2022-11-25T04:48:22;0.70;;;0.60;;
24159;SDS011;62385;41.594;23.808;2022-11-25T04:50:47;0.50;;;0.50;;
24159;SDS011;62385;41.594;23.808;2022-11-25T04:53:13;4.10;;;2.00;;
24159;SDS011;62385;41.594;23.808;2022-11-25T04:55:39;1.73;;;1.63;;
24159;SDS011;62385;41.594;23.808;2022-11-25T04:58:10;0.80;;;0.60;;
24159;SDS011;62385;41.594;23.808;2022-11-25T05:00:38;1.23;;;0.67;;
24159;SDS011;62385;41.594;23.808;2022-11-25T05:03:05;1.57;;;1.37;;
24159;SDS011;62385;41.594;23.808;2022-11-25T05:05:34;1.83;;;1.23;;
24159;SDS011;62385;41.594;23.808;2022-11-25T05:08:03;13.20;;;7.13;;
24159;SDS011;62385;41.594;23.808;2022-11-25T05:10:28;15.40;;;0.87;;
24159;SDS011;62385;41.594;23.808;2022-11-25T05:12:55;4.43;;;2.00;;
24159;SDS011;62385;41.594;23.808;2022-11-25T05:15:21;1.77;;;1.13;;
24159;SDS011;62385;41.594;23.808;2022-11-25T05:17:46;1.30;;;1.13;;
24159;SDS011;62385;41.594;23.808;2022-11-25T05:20:14;4.43;;;2.57;;
24159;SDS011;62385;41.594;23.808;2022-11-25T05:22:39;3.47;;;3.17;;
24159;SDS011;62385;41.594;23.808;2022-11-25T05:25:07;9.33;;;3.07;;
24159;SDS011;62385;41.594;23.808;2022-11-25T05:27:41;4.33;;;3.13;;
24159;SDS011;62385;41.594;23.808;2022-11-25T05:30:08;5.33;;;2.90;;
24159;SDS011;62385;41.594;23.808;2022-11-25T05:32:34;5.43;;;1.63;;
24159;SDS011;62385;41.594;23.808;2022-11-25T05:35:05;2.33;;;1.77;;
24159;SDS011;62385;41.594;23.808;2022-11-25T05:37:31;9.63;;;3.77;;
24159;SDS011;62385;41.594;23.808;2022-11-25T05:40:02;7.23;;;3.83;;
24159;SDS011;62385;41.594;23.808;2022-11-25T05:42:28;9.90;;;5.07;;
24159;SDS011;62385;41.594;23.808;2022-11-25T05:44:56;7.30;;;3.70;;
24159;SDS011;62385;41.594;23.808;2022-11-25T05:47:23;7.00;;;4.60;;
24159;SDS011;62385;41.594;23.808;2022-11-25T05:49:48;6.73;;;5.40;;
24159;SDS011;62385;41.594;23.808;2022-11-25T05:52:14;8.97;;;5.60;;
24159;SDS011;62385;41.594;23.808;2022-11-25T05:54:47;7.47;;;5.13;;
24159;SDS011;62385;41.594;23.808;2022-11-25T05:57:15;8.13;;;5.60;;
24159;SDS011;62385;41.594;23.808;2022-11-25T05:59:46;6.43;;;4.57;;
24159;SDS011;62385;41.594;23.808;2022-11-25T06:02:18;4.00;;;2.53;;
24159;SDS011;62385;41.594;23.808;2022-11-25T06:04:45;6.33;;;4.10;;
24159;SDS011;62385;41.594;23.808;2022-11-25T06:07:10;8.13;;;3.63;;
24159;SDS011;62385;41.594;23.808;2022-11-25T06:09:38;1.03;;;0.93;;
24159;SDS011;62385;41.594;23.808;2022-11-25T06:12:04;2.43;;;1.17;;
24159;SDS011;62385;41.594;23.808;2022-11-25T06:14:33;3.83;;;1.80;;
24159;SDS011;62385;41.594;23.808;2022-11-25T06:16:59;19.37;;;4.70;;
24159;SDS011;62385;41.594;23.808;2022-11-25T06:19:34;4.60;;;4.03;;
24159;SDS011;62385;41.594;23.808;2022-11-25T06:22:01;10.13;;;5.40;;
24159;SDS011;62385;41.594;23.808;2022-11-25T06:24:27;7.30;;;4.50;;
24159;SDS011;62385;41.594;23.808;2022-11-25T06:26:59;9.93;;;4.63;;
24159;SDS011;62385;41.594;23.808;2022-11-25T06:29:25;5.23;;;3.27;;
24159;SDS011;62385;41.594;23.808;2022-11-25T06:31:51;11.13;;;4.63;;
24159;SDS011;62385;41.594;23.808;2022-11-25T06:34:34;4.70;;;3.63;;
24159;SDS011;62385;41.594;23.808;2022-11-25T06:37:03;8.17;;;5.53;;
24159;SDS011;62385;41.594;23.808;2022-11-25T06:39:29;11.93;;;5.00;;
24159;SDS011;62385;41.594;23.808;2022-11-25T06:41:54;15.47;;;5.10;;
24159;SDS011;62385;41.594;23.808;2022-11-25T06:44:20;5.27;;;3.27;;
24159;SDS011;62385;41.594;23.808;2022-11-25T06:46:45;4.10;;;2.10;;
24159;SDS011;62385;41.594;23.808;2022-11-25T06:49:11;4.60;;;3.07;;
24159;SDS011;62385;41.594;23.808;2022-11-25T06:51:36;3.80;;;2.87;;
24159;SDS011;62385;41.594;23.808;2022-11-25T06:54:02;21.27;;;7.77;;
24159;SDS011;62385;41.594;23.808;2022-11-25T06:56:28;13.87;;;7.10;;
24159;SDS011;62385;41.594;23.808;2022-11-25T06:58:53;16.27;;;6.40;;
24159;SDS011;62385;41.594;23.808;2022-11-25T07:01:20;17.17;;;9.17;;
24159;SDS011;62385;41.594;23.808;2022-11-25T07:03:49;19.37;;;7.30;;
24159;SDS011;62385;41.594;23.808;2022-11-25T07:06:18;13.57;;;7.20;;
24159;SDS011;62385;41.594;23.808;2022-11-25T07:08:44;11.73;;;7.37;;
24159;SDS011;62385;41.594;23.808;2022-11-25T07:13:51;12.17;;;7.10;;
24159;SDS011;62385;41.594;23.808;2022-11-25T07:16:17;11.03;;;5.97;;
24159;SDS011;62385;41.594;23.808;2022-11-25T07:18:43;6.67;;;3.87;;
24159;SDS011;62385;41.594;23.808;2022-11-25T07:21:18;13.67;;;8.03;;
24159;SDS011;62385;41.594;23.808;2022-11-25T07:23:49;10.23;;;6.67;;
24159;SDS011;62385;41.594;23.808;2022-11-25T07:26:20;10.20;;;6.90;;
24159;SDS011;62385;41.594;23.808;2022-11-25T07:28:47;11.67;;;7.23;;
24159;SDS011;62385;41.594;23.808;2022-11-25T07:33:41;8.13;;;6.07;;
24159;SDS011;62385;41.594;23.808;2022-11-25T07:36:07;3.37;;;3.07;;
24159;SDS011;62385;41.594;23.808;2022-11-25T07:38:35;6.60;;;1.63;;
24159;SDS011;62385;41.594;23.808;2022-11-25T07:41:08;10.97;;;4.33;;
24159;SDS011;62385;41.594;23.808;2022-11-25T07:43:35;12.50;;;8.20;;
24159;SDS011;62385;41.594;23.808;2022-11-25T07:48:47;10.73;;;4.70;;
24159;SDS011;62385;41.594;23.808;2022-11-25T07:51:17;5.43;;;3.07;;
24159;SDS011;62385;41.594;23.808;2022-11-25T07:53:46;9.67;;;4.37;;
24159;SDS011;62385;41.594;23.808;2022-11-25T07:56:13;6.33;;;4.07;;
24159;SDS011;62385;41.594;23.808;2022-11-25T07:58:40;6.70;;;4.00;;
24159;SDS011;62385;41.594;23.808;2022-11-25T08:01:07;6.13;;;4.27;;
24159;SDS011;62385;41.594;23.808;2022-11-25T08:03:35;5.93;;;3.03;;
24159;SDS011;62385;41.594;23.808;2022-11-25T08:06:02;6.87;;;3.10;;
24159;SDS011;62385;41.594;23.808;2022-11-25T08:08:29;5.87;;;2.93;;
24159;SDS011;62385;41.594;23.808;2022-11-25T08:10:54;3.93;;;1.90;;
24159;SDS011;62385;41.594;23.808;2022-11-25T08:13:20;2.87;;;1.87;;
24159;SDS011;62385;41.594;23.808;2022-11-25T08:15:46;3.30;;;1.90;;
24159;SDS011;62385;41.594;23.808;2022-11-25T08:18:12;1.47;;;1.37;;
24159;SDS011;62385;41.594;23.808;2022-11-25T08:20:37;2.80;;;1.87;;
24159;SDS011;62385;41.594;23.808;2022-11-25T08:23:03;2.00;;;1.17;;
24159;SDS011;62385;41.594;23.808;2022-11-25T08:25:29;4.00;;;1.60;;
24159;SDS011;62385;41.594;23.808;2022-11-25T08:27:59;6.23;;;2.10;;
24159;SDS011;62385;41.594;23.808;2022-11-25T08:30:26;2.07;;;1.40;;
24159;SDS011;62385;41.594;23.808;2022-11-25T08:32:52;2.90;;;1.73;;
24159;SDS011;62385;41.594;23.808;2022-11-25T08:35:18;3.10;;;1.60;;
24159;SDS011;62385;41.594;23.808;2022-11-25T08:37:45;1.37;;;1.07;;
24159;SDS011;62385;41.594;23.808;2022-11-25T08:40:10;2.83;;;0.83;;
24159;SDS011;62385;41.594;23.808;2022-11-25T08:42:38;2.13;;;1.10;;
24159;SDS011;62385;41.594;23.808;2022-11-25T08:45:04;3.77;;;1.27;;
24159;SDS011;62385;41.594;23.808;2022-11-25T08:47:30;2.37;;;1.20;;
24159;SDS011;62385;41.594;23.808;2022-11-25T08:49:56;3.03;;;1.83;;
24159;SDS011;62385;41.594;23.808;2022-11-25T08:52:22;3.70;;;1.40;;
24159;SDS011;62385;41.594;23.808;2022-11-25T08:54:47;1.57;;;0.80;;
24159;SDS011;62385;41.594;23.808;2022-11-25T08:57:15;2.93;;;1.07;;
24159;SDS011;62385;41.594;23.808;2022-11-25T08:59:40;1.47;;;0.97;;
24159;SDS011;62385;41.594;23.808;2022-11-25T09:02:08;1.00;;;0.70;;
24159;SDS011;62385;41.594;23.808;2022-11-25T09:04:36;1.17;;;0.93;;
24159;SDS011;62385;41.594;23.808;2022-11-25T09:07:02;0.37;;;0.20;;
24159;SDS011;62385;41.594;23.808;2022-11-25T09:09:28;0.60;;;0.53;;
24159;SDS011;62385;41.594;23.808;2022-11-25T09:11:55;0.80;;;0.53;;
24159;SDS011;62385;41.594;23.808;2022-11-25T09:14:21;0.40;;;0.30;;
24159;SDS011;62385;41.594;23.808;2022-11-25T09:16:47;0.33;;;0.33;;
24159;SDS011;62385;41.594;23.808;2022-11-25T09:19:13;1.60;;;0.80;;
24159;SDS011;62385;41.594;23.808;2022-11-25T09:21:39;0.30;;;0.30;;
24159;SDS011;62385;41.594;23.808;2022-11-25T09:24:04;0.23;;;0.13;;
24159;SDS011;62385;41.594;23.808;2022-11-25T09:26:31;0.40;;;0.20;;
24159;SDS011;62385;41.594;23.808;2022-11-25T09:29:01;1.33;;;0.87;;
24159;SDS011;62385;41.594;23.808;2022-11-25T09:31:27;2.20;;;1.43;;
24159;SDS011;62385;41.594;23.808;2022-11-25T09:33:54;0.57;;;0.37;;
24159;SDS011;62385;41.594;23.808;2022-11-25T09:36:20;1.37;;;0.80;;
24159;SDS011;62385;41.594;23.808;2022-11-25T09:38:48;0.43;;;0.43;;
24159;SDS011;62385;41.594;23.808;2022-11-25T09:50:13;0.20;;;0.20;;
24159;SDS011;62385;41.594;23.808;2022-11-25T09:52:56;0.20;;;0.10;;
24159;SDS011;62385;41.594;23.808;2022-11-25T09:55:34;0.27;;;0.27;;
24159;SDS011;62385;41.594;23.808;2022-11-25T10:01:03;0.27;;;0.27;;
24159;SDS011;62385;41.594;23.808;2022-11-25T10:03:33;0.30;;;0.20;;
24159;SDS011;62385;41.594;23.808;2022-11-25T10:09:01;0.30;;;0.30;;
24159;SDS011;62385;41.594;23.808;2022-11-25T10:17:41;0.20;;;0.10;;
24159;SDS011;62385;41.594;23.808;2022-11-25T10:22:56;0.73;;;0.50;;
24159;SDS011;62385;41.594;23.808;2022-11-25T10:25:30;0.95;;;0.73;;
24159;SDS011;62385;41.594;23.808;2022-11-25T10:28:00;0.20;;;0.10;;
24159;SDS011;62385;41.594;23.808;2022-11-25T10:30:47;0.20;;;0.10;;
24159;SDS011;62385;41.594;23.808;2022-11-25T10:33:23;0.35;;;0.32;;
24159;SDS011;62385;41.594;23.808;2022-11-25T10:35:56;1.40;;;0.82;;
24159;SDS011;62385;41.594;23.808;2022-11-25T10:41:10;0.25;;;0.10;;
24159;SDS011;62385;41.594;23.808;2022-11-25T10:43:40;0.20;;;0.10;;
24159;SDS011;62385;41.594;23.808;2022-11-25T10:46:09;0.30;;;0.22;;
24159;SDS011;62385;41.594;23.808;2022-11-25T11:01:45;0.30;;;0.20;;
24159;SDS011;62385;41.594;23.808;2022-11-25T11:04:12;0.57;;;0.52;;
24159;SDS011;62385;41.594;23.808;2022-11-25T11:06:43;0.20;;;0.20;;
24159;SDS011;62385;41.594;23.808;2022-11-25T11:09:32;0.43;;;0.35;;
24159;SDS011;62385;41.594;23.808;2022-11-25T11:12:12;0.45;;;0.43;;
24159;SDS011;62385;41.594;23.808;2022-11-25T11:14:48;1.17;;;0.88;;
24159;SDS011;62385;41.594;23.808;2022-11-25T11:17:21;0.70;;;0.40;;
24159;SDS011;62385;41.594;23.808;2022-11-25T11:22:33;0.35;;;0.30;;
24159;SDS011;62385;41.594;23.808;2022-11-25T11:25:34;0.50;;;0.50;;
24159;SDS011;62385;41.594;23.808;2022-11-25T11:27:54;8.68;;;0.55;;
24159;SDS011;62385;41.594;23.808;2022-11-25T11:30:20;0.50;;;0.40;;
24159;SDS011;62385;41.594;23.808;2022-11-25T11:32:56;0.55;;;0.40;;
24159;SDS011;62385;41.594;23.808;2022-11-25T11:49:38;1.75;;;0.43;;
24159;SDS011;62385;41.594;23.808;2022-11-25T11:52:16;1.85;;;1.33;;
24159;SDS011;62385;41.594;23.808;2022-11-25T11:54:53;0.35;;;0.20;;
24159;SDS011;62385;41.594;23.808;2022-11-25T12:00:12;0.40;;;0.20;;
24159;SDS011;62385;41.594;23.808;2022-11-25T12:03:03;0.70;;;0.40;;
24159;SDS011;62385;41.594;23.808;2022-11-25T12:05:37;0.63;;;0.40;;
24159;SDS011;62385;41.594;23.808;2022-11-25T12:08:12;0.20;;;0.10;;
24159;SDS011;62385;41.594;23.808;2022-11-25T12:10:49;0.47;;;0.45;;
24159;SDS011;62385;41.594;23.808;2022-11-25T12:13:20;1.70;;;0.65;;
24159;SDS011;62385;41.594;23.808;2022-11-25T12:16:18;0.38;;;0.22;;
24159;SDS011;62385;41.594;23.808;2022-11-25T12:24:48;0.30;;;0.17;;
24159;SDS011;62385;41.594;23.808;2022-11-25T12:27:58;0.30;;;0.10;;
24159;SDS011;62385;41.594;23.808;2022-11-25T12:35:15;0.30;;;0.30;;
24159;SDS011;62385;41.594;23.808;2022-11-25T12:38:04;0.30;;;0.15;;
24159;SDS011;62385;41.594;23.808;2022-11-25T12:48:57;0.45;;;0.30;;
24159;SDS011;62385;41.594;23.808;2022-11-25T13:02:29;1.00;;;0.77;;
24159;SDS011;62385;41.594;23.808;2022-11-25T13:17:12;2.38;;;0.43;;
24159;SDS011;62385;41.594;23.808;2022-11-25T13:19:41;0.30;;;0.10;;
24159;SDS011;62385;41.594;23.808;2022-11-25T13:24:45;0.35;;;0.32;;
24159;SDS011;62385;41.594;23.808;2022-11-25T13:29:56;0.40;;;0.30;;
24159;SDS011;62385;41.594;23.808;2022-11-25T13:35:25;0.95;;;0.50;;
24159;SDS011;62385;41.594;23.808;2022-11-25T13:37:47;0.30;;;0.20;;
24159;SDS011;62385;41.594;23.808;2022-11-25T13:42:51;0.35;;;0.22;;
24159;SDS011;62385;41.594;23.808;2022-11-25T13:47:50;0.45;;;0.45;;
24159;SDS011;62385;41.594;23.808;2022-11-25T13:50:22;0.40;;;0.40;;
24159;SDS011;62385;41.594;23.808;2022-11-25T13:52:57;0.63;;;0.40;;
24159;SDS011;62385;41.594;23.808;2022-11-25T13:55:33;1.05;;;0.63;;
24159;SDS011;62385;41.594;23.808;2022-11-25T14:20:03;0.40;;;0.38;;
24159;SDS011;62385;41.594;23.808;2022-11-25T14:26:17;0.32;;;0.28;;
24159;SDS011;62385;41.594;23.808;2022-11-25T14:31:56;0.20;;;0.00;;
24159;SDS011;62385;41.594;23.808;2022-11-25T14:34:35;4.15;;;1.50;;
24159;SDS011;62385;41.594;23.808;2022-11-25T14:39:48;1.83;;;0.93;;
24159;SDS011;62385;41.594;23.808;2022-11-25T14:42:20;0.40;;;0.40;;
24159;SDS011;62385;41.594;23.808;2022-11-25T14:44:51;0.70;;;0.70;;
24159;SDS011;62385;41.594;23.808;2022-11-25T14:47:21;0.23;;;0.20;;
24159;SDS011;62385;41.594;23.808;2022-11-25T14:49:50;0.95;;;0.50;;
24159;SDS011;62385;41.594;23.808;2022-11-25T14:52:18;1.57;;;0.73;;
24159;SDS011;62385;41.594;23.808;2022-11-25T14:54:48;0.97;;;0.90;;
24159;SDS011;62385;41.594;23.808;2022-11-25T14:57:17;0.63;;;0.55;;
24159;SDS011;62385;41.594;23.808;2022-11-25T14:59:51;4.50;;;0.70;;
24159;SDS011;62385;41.594;23.808;2022-11-25T15:02:25;0.97;;;0.47;;
24159;SDS011;62385;41.594;23.808;2022-11-25T15:07:41;2.23;;;0.83;;
24159;SDS011;62385;41.594;23.808;2022-11-25T15:10:27;0.40;;;0.40;;
24159;SDS011;62385;41.594;23.808;2022-11-25T15:12:58;0.73;;;0.50;;
24159;SDS011;62385;41.594;23.808;2022-11-25T15:15:26;1.73;;;0.90;;
24159;SDS011;62385;41.594;23.808;2022-11-25T15:17:52;2.33;;;0.90;;
24159;SDS011;62385;41.594;23.808;2022-11-25T15:20:19;0.93;;;0.67;;
24159;SDS011;62385;41.594;23.808;2022-11-25T15:22:50;1.70;;;0.63;;
24159;SDS011;62385;41.594;23.808;2022-11-25T15:25:16;2.60;;;1.00;;
24159;SDS011;62385;41.594;23.808;2022-11-25T15:27:44;0.50;;;0.50;;
24159;SDS011;62385;41.594;23.808;2022-11-25T15:30:23;1.00;;;0.80;;
24159;SDS011;62385;41.594;23.808;2022-11-25T15:32:58;2.20;;;1.30;;
24159;SDS011;62385;41.594;23.808;2022-11-25T15:35:25;3.77;;;2.47;;
24159;SDS011;62385;41.594;23.808;2022-11-25T15:37:54;1.23;;;0.83;;
24159;SDS011;62385;41.594;23.808;2022-11-25T15:40:41;2.37;;;1.73;;
24159;SDS011;62385;41.594;23.808;2022-11-25T15:43:27;6.10;;;2.90;;
24159;SDS011;62385;41.594;23.808;2022-11-25T15:46:02;2.57;;;1.83;;
24159;SDS011;62385;41.594;23.808;2022-11-25T15:48:31;6.03;;;1.60;;
24159;SDS011;62385;41.594;23.808;2022-11-25T15:51:04;6.47;;;2.40;;
24159;SDS011;62385;41.594;23.808;2022-11-25T15:53:50;11.23;;;3.40;;
24159;SDS011;62385;41.594;23.808;2022-11-25T15:56:19;2.13;;;1.37;;
24159;SDS011;62385;41.594;23.808;2022-11-25T15:59:00;0.73;;;0.67;;
24159;SDS011;62385;41.594;23.808;2022-11-25T16:05:21;12.30;;;5.07;;
24159;SDS011;62385;41.594;23.808;2022-11-25T16:18:16;1.57;;;0.47;;
24159;SDS011;62385;41.594;23.808;2022-11-25T16:20:47;4.93;;;2.33;;
24159;SDS011;62385;41.594;23.808;2022-11-25T16:23:16;1.50;;;1.33;;
24159;SDS011;62385;41.594;23.808;2022-11-25T16:26:02;2.53;;;1.50;;
24159;SDS011;62385;41.594;23.808;2022-11-25T16:28:50;3.73;;;2.03;;
24159;SDS011;62385;41.594;23.808;2022-11-25T16:31:18;4.32;;;2.47;;
24159;SDS011;62385;41.594;23.808;2022-11-25T16:33:44;3.00;;;1.75;;
24159;SDS011;62385;41.594;23.808;2022-11-25T16:36:10;4.25;;;2.80;;
24159;SDS011;62385;41.594;23.808;2022-11-25T16:38:35;2.97;;;1.57;;
24159;SDS011;62385;41.594;23.808;2022-11-25T16:41:07;2.10;;;1.38;;
24159;SDS011;62385;41.594;23.808;2022-11-25T16:43:36;2.92;;;2.03;;
24159;SDS011;62385;41.594;23.808;2022-11-25T16:46:04;3.50;;;3.17;;
24159;SDS011;62385;41.594;23.808;2022-11-25T16:48:31;2.83;;;1.60;;
24159;SDS011;62385;41.594;23.808;2022-11-25T16:50:57;4.03;;;2.03;;
24159;SDS011;62385;41.594;23.808;2022-11-25T16:53:23;1.53;;;1.43;;
24159;SDS011;62385;41.594;23.808;2022-11-25T16:55:49;4.10;;;1.57;;
24159;SDS011;62385;41.594;23.808;2022-11-25T16:58:17;2.50;;;2.30;;
24159;SDS011;62385;41.594;23.808;2022-11-25T17:00:44;6.40;;;2.93;;
24159;SDS011;62385;41.594;23.808;2022-11-25T17:03:16;14.87;;;2.47;;
24159;SDS011;62385;41.594;23.808;2022-11-25T17:05:42;4.20;;;2.70;;
24159;SDS011;62385;41.594;23.808;2022-11-25T17:08:11;2.33;;;2.00;;
24159;SDS011;62385;41.594;23.808;2022-11-25T17:10:37;5.10;;;2.00;;
24159;SDS011;62385;41.594;23.808;2022-11-25T17:13:04;3.07;;;2.47;;
24159;SDS011;62385;41.594;23.808;2022-11-25T17:15:33;8.13;;;4.33;;
24159;SDS011;62385;41.594;23.808;2022-11-25T17:18:01;6.77;;;3.37;;
24159;SDS011;62385;41.594;23.808;2022-11-25T17:20:28;4.90;;;3.23;;
24159;SDS011;62385;41.594;23.808;2022-11-25T17:22:56;2.87;;;1.70;;
24159;SDS011;62385;41.594;23.808;2022-11-25T17:25:23;9.10;;;3.23;;
24159;SDS011;62385;41.594;23.808;2022-11-25T17:27:54;8.77;;;4.63;;
24159;SDS011;62385;41.594;23.808;2022-11-25T17:30:21;8.03;;;3.53;;
24159;SDS011;62385;41.594;23.808;2022-11-25T17:32:47;6.77;;;3.73;;
24159;SDS011;62385;41.594;23.808;2022-11-25T17:35:21;8.90;;;4.63;;
24159;SDS011;62385;41.594;23.808;2022-11-25T17:37:47;12.80;;;4.77;;
24159;SDS011;62385;41.594;23.808;2022-11-25T17:40:12;4.17;;;3.03;;
24159;SDS011;62385;41.594;23.808;2022-11-25T17:42:38;11.70;;;3.53;;
24159;SDS011;62385;41.594;23.808;2022-11-25T17:45:12;13.87;;;6.23;;
24159;SDS011;62385;41.594;23.808;2022-11-25T17:47:40;5.67;;;3.57;;
24159;SDS011;62385;41.594;23.808;2022-11-25T17:50:17;7.80;;;3.97;;